createdAt,value
2017-11-12T00:01:03.198Z,0
2017-11-12T00:02:13.522Z,0
2017-11-12T00:03:23.503Z,0
2017-11-12T00:04:32.816Z,0
2017-11-12T00:05:42.452Z,0
2017-11-12T00:06:52.751Z,0
2017-11-12T00:08:02.389Z,0
2017-11-12T00:09:11.703Z,0
2017-11-12T00:10:21.679Z,0
2017-11-12T00:11:32.005Z,0
2017-11-12T00:12:41.978Z,0
2017-11-12T00:13:51.951Z,0
2017-11-12T00:15:02.243Z,0
2017-11-12T00:16:12.538Z,0
2017-11-12T00:17:22.908Z,0
2017-11-12T00:18:33.217Z,0
2017-11-12T00:19:43.546Z,0
2017-11-12T00:20:53.859Z,0
2017-11-12T00:22:04.163Z,0
2017-11-12T00:23:14.131Z,0
2017-11-12T00:24:24.427Z,0
2017-11-12T00:25:34.422Z,0
2017-11-12T00:26:44.732Z,0
2017-11-12T00:27:54.698Z,0
2017-11-12T00:29:04.692Z,0
2017-11-12T00:30:15.012Z,0
2017-11-12T00:31:25.321Z,0
2017-11-12T00:32:35.647Z,0
2017-11-12T00:33:45.624Z,0
2017-11-12T00:34:55.601Z,0
2017-11-12T00:36:05.248Z,0
2017-11-12T00:37:15.220Z,0
2017-11-12T00:38:25.189Z,0
2017-11-12T00:39:35.515Z,0
2017-11-12T00:40:45.483Z,0
2017-11-12T00:41:55.469Z,0
2017-11-12T00:43:05.438Z,0
2017-11-12T00:44:15.416Z,0
2017-11-12T00:45:25.725Z,0
2017-11-12T00:46:36.030Z,0
2017-11-12T00:47:45.999Z,0
2017-11-12T00:48:56.310Z,0
2017-11-12T00:50:05.633Z,0
2017-11-12T00:51:15.618Z,0
2017-11-12T00:52:25.257Z,0
2017-11-12T00:53:35.247Z,0
2017-11-12T00:54:45.235Z,0
2017-11-12T00:55:55.244Z,0
2017-11-12T00:57:05.544Z,0
2017-11-12T00:58:15.196Z,0
2017-11-12T00:59:25.527Z,0
2017-11-12T01:00:35.215Z,0
2017-11-12T01:01:44.531Z,0
2017-11-12T01:02:54.865Z,0
2017-11-12T01:04:04.857Z,0
2017-11-12T01:05:14.840Z,0
2017-11-12T01:06:24.487Z,0
2017-11-12T01:07:34.823Z,0
2017-11-12T01:08:45.142Z,0
2017-11-12T01:09:55.465Z,0
2017-11-12T01:11:05.098Z,0
2017-11-12T01:12:14.751Z,0
2017-11-12T01:13:24.734Z,0
2017-11-12T01:14:34.709Z,0
2017-11-12T01:15:45.033Z,0
2017-11-12T01:16:55.002Z,0
2017-11-12T01:18:05.296Z,0
2017-11-12T01:19:15.631Z,0
2017-11-12T01:20:25.942Z,0
2017-11-12T01:21:36.247Z,0
2017-11-12T01:22:46.568Z,0
2017-11-12T01:23:56.863Z,0
2017-11-12T01:25:06.831Z,0
2017-11-12T01:26:17.136Z,0
2017-11-12T01:27:26.778Z,0
2017-11-12T01:28:37.090Z,0
2017-11-12T01:29:47.396Z,0
2017-11-12T01:30:57.044Z,0
2017-11-12T01:32:07.344Z,0
2017-11-12T01:33:17.643Z,0
2017-11-12T01:34:27.616Z,0
2017-11-12T01:35:36.960Z,0
2017-11-12T01:36:46.953Z,0
2017-11-12T01:37:56.610Z,0
2017-11-12T01:39:06.932Z,0
2017-11-12T01:40:16.903Z,0
2017-11-12T01:41:26.884Z,0
2017-11-12T01:42:36.527Z,0
2017-11-12T01:43:46.501Z,0
2017-11-12T01:44:56.175Z,0
2017-11-12T01:46:06.163Z,0
2017-11-12T01:47:16.129Z,0
2017-11-12T01:48:26.423Z,0
2017-11-12T01:49:36.794Z,0
2017-11-12T01:50:47.096Z,0
2017-11-12T01:51:57.084Z,0
2017-11-12T01:53:07.389Z,0
2017-11-12T01:54:17.689Z,0
2017-11-12T01:55:27.005Z,0
2017-11-12T01:56:36.994Z,0
2017-11-12T01:57:46.974Z,0
2017-11-12T01:58:56.681Z,0
2017-11-12T02:00:06.645Z,0
2017-11-12T02:01:16.972Z,0
2017-11-12T02:02:26.622Z,0
2017-11-12T02:03:36.934Z,0
2017-11-12T02:04:47.244Z,0
2017-11-12T02:05:57.211Z,0
2017-11-12T02:07:06.908Z,0
2017-11-12T02:08:16.881Z,0
2017-11-12T02:09:26.848Z,0
2017-11-12T02:10:36.496Z,0
2017-11-12T02:11:46.483Z,0
2017-11-12T02:12:56.790Z,0
2017-11-12T02:14:07.091Z,0
2017-11-12T02:15:16.722Z,0
2017-11-12T02:16:26.695Z,0
2017-11-12T02:17:36.342Z,0
2017-11-12T02:18:45.977Z,0
2017-11-12T02:19:55.640Z,0
2017-11-12T02:21:05.958Z,0
2017-11-12T02:22:16.267Z,0
2017-11-12T02:23:26.570Z,0
2017-11-12T02:24:36.895Z,0
2017-11-12T02:25:47.210Z,0
2017-11-12T02:26:57.510Z,0
2017-11-12T02:28:07.808Z,0
2017-11-12T02:29:17.791Z,0
2017-11-12T02:30:28.101Z,0
2017-11-12T02:31:38.400Z,0
2017-11-12T02:32:48.375Z,0
2017-11-12T02:33:58.696Z,0
2017-11-12T02:35:08.697Z,0
2017-11-12T02:36:19.012Z,0
2017-11-12T02:37:29.338Z,0
2017-11-12T02:38:39.314Z,0
2017-11-12T02:39:48.637Z,0
2017-11-12T02:40:58.608Z,0
2017-11-12T02:42:08.578Z,0
2017-11-12T02:43:17.892Z,0
2017-11-12T02:44:28.188Z,0
2017-11-12T02:45:38.506Z,0
2017-11-12T02:46:48.859Z,0
2017-11-12T02:47:59.172Z,0
2017-11-12T02:49:09.479Z,0
2017-11-12T02:50:19.117Z,0
2017-11-12T02:51:28.433Z,0
2017-11-12T02:52:38.738Z,0
2017-11-12T02:53:48.722Z,0
2017-11-12T02:54:58.708Z,0
2017-11-12T02:56:09.057Z,0
2017-11-12T02:57:19.354Z,0
2017-11-12T02:58:29.326Z,0
2017-11-12T02:59:39.629Z,0
2017-11-12T03:00:49.927Z,0
2017-11-12T03:02:00.226Z,0
2017-11-12T03:03:10.524Z,0
2017-11-12T03:04:20.834Z,0
2017-11-12T03:05:31.136Z,0
2017-11-12T03:06:41.436Z,0
2017-11-12T03:07:51.089Z,0
2017-11-12T03:09:00.746Z,0
2017-11-12T03:10:11.081Z,0
2017-11-12T03:11:20.753Z,0
2017-11-12T03:12:30.738Z,0
2017-11-12T03:13:40.711Z,0
2017-11-12T03:14:50.354Z,0
2017-11-12T03:16:00.680Z,0
2017-11-12T03:17:10.978Z,0
2017-11-12T03:18:21.289Z,0
2017-11-12T03:19:30.595Z,0
2017-11-12T03:20:39.902Z,0
2017-11-12T03:21:50.201Z,0
2017-11-12T03:23:00.177Z,0
2017-11-12T03:24:10.473Z,0
2017-11-12T03:25:20.443Z,0
2017-11-12T03:26:30.426Z,0
2017-11-12T03:27:40.724Z,0
2017-11-12T03:28:50.690Z,0
2017-11-12T03:30:01.010Z,0
2017-11-12T03:31:11.000Z,0
2017-11-12T03:32:21.300Z,0
2017-11-12T03:33:31.645Z,0
2017-11-12T03:34:41.956Z,0
2017-11-12T03:35:52.256Z,0
2017-11-12T03:37:02.226Z,0
2017-11-12T03:38:12.527Z,0
2017-11-12T03:39:22.821Z,0
2017-11-12T03:40:32.790Z,0
2017-11-12T03:41:42.817Z,0
2017-11-12T03:42:52.125Z,0
2017-11-12T03:44:02.092Z,0
2017-11-12T03:45:11.734Z,0
2017-11-12T03:46:22.036Z,0
2017-11-12T03:47:32.025Z,0
2017-11-12T03:48:41.669Z,0
2017-11-12T03:49:51.972Z,0
2017-11-12T03:51:01.281Z,0
2017-11-12T03:52:11.254Z,0
2017-11-12T03:53:21.223Z,0
2017-11-12T03:54:31.522Z,0
2017-11-12T03:55:41.835Z,0
2017-11-12T03:56:52.132Z,0
2017-11-12T03:58:02.464Z,0
2017-11-12T03:59:12.107Z,0
2017-11-12T04:00:22.408Z,0
2017-11-12T04:01:32.379Z,0
2017-11-12T04:02:42.670Z,0
2017-11-12T04:03:52.967Z,0
2017-11-12T04:05:03.259Z,0
2017-11-12T04:06:13.228Z,0
2017-11-12T04:07:23.189Z,0
2017-11-12T04:08:33.157Z,0
2017-11-12T04:09:43.450Z,0
2017-11-12T04:10:53.743Z,0
2017-11-12T04:12:03.730Z,0
2017-11-12T04:13:13.047Z,0
2017-11-12T04:14:23.343Z,0
2017-11-12T04:15:33.643Z,0
2017-11-12T04:16:43.612Z,0
2017-11-12T04:17:52.917Z,0
2017-11-12T04:19:02.556Z,0
2017-11-12T04:20:12.863Z,0
2017-11-12T04:21:23.163Z,0
2017-11-12T04:22:33.168Z,0
2017-11-12T04:23:43.138Z,0
2017-11-12T04:24:53.434Z,0
2017-11-12T04:26:03.744Z,0
2017-11-12T04:27:14.047Z,0
2017-11-12T04:28:24.014Z,0
2017-11-12T04:29:33.989Z,0
2017-11-12T04:30:43.952Z,0
2017-11-12T04:31:53.913Z,0
2017-11-12T04:33:04.254Z,0
2017-11-12T04:34:13.907Z,0
2017-11-12T04:35:24.217Z,0
2017-11-12T04:36:33.868Z,0
2017-11-12T04:37:43.517Z,0
2017-11-12T04:38:53.156Z,0
2017-11-12T04:40:03.137Z,0
2017-11-12T04:41:13.096Z,0
2017-11-12T04:42:23.643Z,0
2017-11-12T04:43:33.959Z,0
2017-11-12T04:44:44.273Z,0
2017-11-12T04:45:54.241Z,0
2017-11-12T04:47:04.535Z,0
2017-11-12T04:48:14.186Z,0
2017-11-12T04:49:23.823Z,0
2017-11-12T04:50:34.116Z,0
2017-11-12T04:51:44.081Z,0
2017-11-12T04:52:54.052Z,0
2017-11-12T04:54:03.709Z,0
2017-11-12T04:55:13.683Z,0
2017-11-12T04:56:23.026Z,0
2017-11-12T04:57:33.348Z,0
2017-11-12T04:58:43.640Z,0
2017-11-12T04:59:53.617Z,0
2017-11-12T05:01:03.251Z,0
2017-11-12T05:02:12.900Z,0
2017-11-12T05:03:22.888Z,0
2017-11-12T05:04:33.191Z,0
2017-11-12T05:05:43.153Z,0
2017-11-12T05:06:52.788Z,0
2017-11-12T05:08:02.749Z,0
2017-11-12T05:09:12.721Z,0
2017-11-12T05:10:22.700Z,0
2017-11-12T05:11:33.007Z,0
2017-11-12T05:12:43.303Z,0
2017-11-12T05:13:53.262Z,0
2017-11-12T05:15:02.908Z,0
2017-11-12T05:16:12.882Z,0
2017-11-12T05:17:23.183Z,0
2017-11-12T05:18:33.480Z,0
2017-11-12T05:19:43.773Z,0
2017-11-12T05:20:53.740Z,0
2017-11-12T05:22:03.401Z,0
2017-11-12T05:23:13.376Z,0
2017-11-12T05:24:22.685Z,0
2017-11-12T05:25:32.990Z,0
2017-11-12T05:26:43.299Z,0
2017-11-12T05:27:53.600Z,0
2017-11-12T05:29:03.901Z,0
2017-11-12T05:30:13.875Z,0
2017-11-12T05:31:23.507Z,0
2017-11-12T05:32:32.479Z,0
2017-11-12T05:33:41.791Z,0
2017-11-12T05:34:51.833Z,0
2017-11-12T05:36:02.135Z,0
2017-11-12T05:37:12.142Z,0
2017-11-12T05:38:22.118Z,0
2017-11-12T05:39:32.423Z,0
2017-11-12T05:40:42.717Z,0
2017-11-12T05:41:53.024Z,0
2017-11-12T05:43:03.316Z,0
2017-11-12T05:44:12.968Z,0
2017-11-12T05:45:23.545Z,4
2017-11-12T05:46:33.507Z,0
2017-11-12T05:47:43.809Z,4
2017-11-12T05:48:54.129Z,4
2017-11-12T05:50:04.099Z,4
2017-11-12T05:51:13.408Z,4
2017-11-12T05:52:23.396Z,4
2017-11-12T05:53:33.395Z,8
2017-11-12T05:54:43.353Z,8
2017-11-12T05:55:53.671Z,12
2017-11-12T05:57:03.322Z,16
2017-11-12T05:58:13.629Z,16
2017-11-12T05:59:23.619Z,24
2017-11-12T06:00:33.600Z,32
2017-11-12T06:01:43.897Z,36
2017-11-12T06:02:54.191Z,40
2017-11-12T06:04:04.166Z,52
2017-11-12T06:05:14.473Z,60
2017-11-12T06:06:24.775Z,76
2017-11-12T06:07:34.744Z,92
2017-11-12T06:08:44.394Z,112
2017-11-12T06:09:54.708Z,132
2017-11-12T06:11:04.353Z,152
2017-11-12T06:12:14.655Z,172
2017-11-12T06:13:24.629Z,204
2017-11-12T06:14:34.257Z,228
2017-11-12T06:15:44.238Z,252
2017-11-12T06:16:54.203Z,292
2017-11-12T06:18:04.495Z,324
2017-11-12T06:19:14.485Z,368
2017-11-12T06:20:24.459Z,420
2017-11-12T06:21:34.751Z,468
2017-11-12T06:22:44.401Z,524
2017-11-12T06:23:54.373Z,580
2017-11-12T06:25:04.344Z,632
2017-11-12T06:26:14.644Z,692
2017-11-12T06:27:24.934Z,752
2017-11-12T06:28:34.920Z,812
2017-11-12T06:29:44.892Z,880
2017-11-12T06:30:55.181Z,948
2017-11-12T06:32:05.480Z,1024
2017-11-12T06:33:15.812Z,1092
2017-11-12T06:34:26.161Z,1176
2017-11-12T06:35:36.120Z,1252
2017-11-12T06:36:45.759Z,1336
2017-11-12T06:37:56.066Z,1416
2017-11-12T06:39:06.048Z,1508
2017-11-12T06:40:16.340Z,1600
2017-11-12T06:41:26.640Z,1692
2017-11-12T06:42:36.618Z,1792
2017-11-12T06:43:46.259Z,1892
2017-11-12T06:44:56.229Z,1988
2017-11-12T06:46:05.879Z,2108
2017-11-12T06:47:15.843Z,2228
2017-11-12T06:48:25.818Z,2324
2017-11-12T06:49:36.109Z,2440
2017-11-12T06:50:46.077Z,2556
2017-11-12T06:51:56.368Z,2672
2017-11-12T06:53:05.681Z,2796
2017-11-12T06:54:15.009Z,2944
2017-11-12T06:55:25.317Z,3064
2017-11-12T06:56:35.612Z,3228
2017-11-12T06:57:45.903Z,3336
2017-11-12T06:58:55.879Z,3464
2017-11-12T07:00:06.193Z,3612
2017-11-12T07:01:15.830Z,3748
2017-11-12T07:02:26.140Z,3860
2017-11-12T07:03:36.457Z,3968
2017-11-12T07:04:45.767Z,4048
2017-11-12T07:05:56.090Z,4156
2017-11-12T07:07:05.410Z,4252
2017-11-12T07:08:15.392Z,4304
2017-11-12T07:09:25.044Z,4372
2017-11-12T07:10:35.359Z,4444
2017-11-12T07:11:45.343Z,4460
2017-11-12T07:12:55.635Z,4596
2017-11-12T07:14:05.630Z,4648
2017-11-12T07:15:15.609Z,4792
2017-11-12T07:16:24.939Z,4944
2017-11-12T07:17:34.934Z,5116
2017-11-12T07:18:44.589Z,5336
2017-11-12T07:19:54.981Z,5656
2017-11-12T07:21:05.277Z,5968
2017-11-12T07:22:14.918Z,6332
2017-11-12T07:23:24.919Z,6688
2017-11-12T07:24:34.887Z,7024
2017-11-12T07:25:44.859Z,7232
2017-11-12T07:26:55.151Z,7524
2017-11-12T07:28:05.127Z,7528
2017-11-12T07:29:15.660Z,7864
2017-11-12T07:30:25.628Z,8052
2017-11-12T07:31:35.592Z,8432
2017-11-12T07:32:45.575Z,8600
2017-11-12T07:33:55.551Z,8584
2017-11-12T07:35:04.864Z,8624
2017-11-12T07:36:14.834Z,8456
2017-11-12T07:37:24.502Z,8216
2017-11-12T07:38:34.507Z,7940
2017-11-12T07:39:44.160Z,8164
2017-11-12T07:40:53.511Z,8296
2017-11-12T07:42:03.802Z,8504
2017-11-12T07:43:13.469Z,8960
2017-11-12T07:44:23.781Z,8524
2017-11-12T07:45:33.419Z,8680
2017-11-12T07:46:43.734Z,9140
2017-11-12T07:47:53.716Z,9816
2017-11-12T07:49:03.023Z,9424
2017-11-12T07:50:13.334Z,9760
2017-11-12T07:51:23.636Z,10584
2017-11-12T07:52:33.941Z,10796
2017-11-12T07:53:44.267Z,10556
2017-11-12T07:54:53.583Z,11036
2017-11-12T07:56:03.910Z,10752
2017-11-12T07:57:13.575Z,10792
2017-11-12T07:58:23.538Z,10856
2017-11-12T07:59:33.189Z,10780
2017-11-12T08:00:43.492Z,10908
2017-11-12T08:01:53.815Z,10672
2017-11-12T08:03:04.108Z,10608
2017-11-12T08:04:14.086Z,10048
2017-11-12T08:05:24.396Z,10720
2017-11-12T08:06:34.378Z,10424
2017-11-12T08:07:44.349Z,10500
2017-11-12T08:08:54.323Z,9784
2017-11-12T08:10:04.651Z,9732
2017-11-12T08:11:14.618Z,10304
2017-11-12T08:12:24.926Z,9996
2017-11-12T08:13:34.897Z,9940
2017-11-12T08:14:44.888Z,10084
2017-11-12T08:15:54.858Z,9908
2017-11-12T08:17:04.841Z,10596
2017-11-12T08:18:14.497Z,10444
2017-11-12T08:19:24.477Z,9892
2017-11-12T08:20:34.790Z,10580
2017-11-12T08:21:45.093Z,10876
2017-11-12T08:22:55.392Z,11084
2017-11-12T08:24:05.365Z,10908
2017-11-12T08:25:15.673Z,11344
2017-11-12T08:26:24.994Z,11840
2017-11-12T08:27:34.971Z,12276
2017-11-12T08:28:44.615Z,12272
2017-11-12T08:29:54.969Z,12460
2017-11-12T08:31:05.279Z,12788
2017-11-12T08:32:15.276Z,13032
2017-11-12T08:33:25.597Z,13432
2017-11-12T08:34:35.253Z,13580
2017-11-12T08:35:44.888Z,13604
2017-11-12T08:36:54.868Z,13628
2017-11-12T08:38:05.175Z,13616
2017-11-12T08:39:14.500Z,13720
2017-11-12T08:40:24.794Z,13936
2017-11-12T08:41:35.142Z,14172
2017-11-12T08:42:45.448Z,15036
2017-11-12T08:43:55.423Z,14568
2017-11-12T08:45:05.400Z,14516
2017-11-12T08:46:15.046Z,14804
2017-11-12T08:47:25.374Z,14900
2017-11-12T08:48:35.700Z,15188
2017-11-12T08:49:45.355Z,15328
2017-11-12T08:50:55.690Z,15636
2017-11-12T08:52:05.992Z,16240
2017-11-12T08:53:15.949Z,16736
2017-11-12T08:54:26.251Z,16864
2017-11-12T08:55:36.214Z,16736
2017-11-12T08:56:45.860Z,17152
2017-11-12T08:57:55.828Z,17376
2017-11-12T08:59:06.160Z,17440
2017-11-12T09:00:16.481Z,17824
2017-11-12T09:01:26.468Z,17568
2017-11-12T09:02:36.451Z,17216
2017-11-12T09:03:46.104Z,16864
2017-11-12T09:04:56.474Z,16960
2017-11-12T09:06:05.453Z,16352
2017-11-12T09:07:15.449Z,16144
2017-11-12T09:08:25.754Z,16832
2017-11-12T09:09:36.057Z,16960
2017-11-12T09:10:46.021Z,17152
2017-11-12T09:11:55.688Z,17152
2017-11-12T09:13:05.688Z,17248
2017-11-12T09:14:15.330Z,17408
2017-11-12T09:15:25.648Z,17152
2017-11-12T09:16:35.293Z,17696
2017-11-12T09:17:45.580Z,18112
2017-11-12T09:18:55.238Z,16404
2017-11-12T09:20:05.203Z,17376
2017-11-12T09:21:15.224Z,17824
2017-11-12T09:22:25.792Z,17312
2017-11-12T09:23:35.458Z,17024
2017-11-12T09:24:45.442Z,16492
2017-11-12T09:25:55.416Z,15964
2017-11-12T09:27:05.736Z,15632
2017-11-12T09:28:15.723Z,15248
2017-11-12T09:29:26.031Z,14944
2017-11-12T09:30:35.354Z,14888
2017-11-12T09:31:45.651Z,14692
2017-11-12T09:32:55.897Z,14572
2017-11-12T09:34:06.205Z,14404
2017-11-12T09:35:16.184Z,14328
2017-11-12T09:36:26.515Z,14308
2017-11-12T09:37:36.817Z,14288
2017-11-12T09:38:47.126Z,14112
2017-11-12T09:39:57.096Z,13756
2017-11-12T09:41:07.075Z,13596
2017-11-12T09:42:16.765Z,13704
2017-11-12T09:43:26.405Z,14108
2017-11-12T09:44:36.050Z,14200
2017-11-12T09:45:45.702Z,14688
2017-11-12T09:46:55.343Z,15276
2017-11-12T09:48:05.794Z,15528
2017-11-12T09:49:15.768Z,15816
2017-11-12T09:50:25.748Z,15528
2017-11-12T09:51:36.070Z,16276
2017-11-12T09:52:45.732Z,16000
2017-11-12T09:53:55.699Z,15956
2017-11-12T09:55:06.021Z,15700
2017-11-12T09:56:16.332Z,15648
2017-11-12T09:57:26.629Z,15636
2017-11-12T09:58:36.609Z,15900
2017-11-12T09:59:46.527Z,16032
2017-11-12T10:00:56.528Z,15868
2017-11-12T10:02:06.508Z,15936
2017-11-12T10:03:16.154Z,16120
2017-11-12T10:04:26.458Z,15936
2017-11-12T10:05:36.784Z,15928
2017-11-12T10:06:46.760Z,16020
2017-11-12T10:07:57.064Z,15948
2017-11-12T10:09:06.727Z,15712
2017-11-12T10:10:16.397Z,15616
2017-11-12T10:11:26.753Z,15588
2017-11-12T10:12:36.748Z,15728
2017-11-12T10:13:47.069Z,15876
2017-11-12T10:14:56.710Z,15900
2017-11-12T10:16:07.014Z,15936
2017-11-12T10:17:17.323Z,15880
2017-11-12T10:18:27.306Z,15856
2017-11-12T10:19:37.289Z,15828
2017-11-12T10:20:47.262Z,16140
2017-11-12T10:21:57.583Z,16480
2017-11-12T10:23:07.563Z,17248
2017-11-12T10:24:17.549Z,17568
2017-11-12T10:25:27.189Z,18272
2017-11-12T10:26:37.490Z,19872
2017-11-12T10:27:47.511Z,21344
2017-11-12T10:28:57.507Z,24256
2017-11-12T10:30:06.825Z,25472
2017-11-12T10:31:17.145Z,27808
2017-11-12T10:32:27.460Z,29088
2017-11-12T10:33:37.775Z,32288
2017-11-12T10:34:48.111Z,36352
2017-11-12T10:35:58.407Z,37312
2017-11-12T10:37:08.715Z,35168
2017-11-12T10:38:18.693Z,31328
2017-11-12T10:39:28.333Z,36480
2017-11-12T10:40:38.644Z,32096
2017-11-12T10:41:48.641Z,34688
2017-11-12T10:42:58.975Z,31040
2017-11-12T10:44:08.974Z,28416
2017-11-12T10:45:19.283Z,25632
2017-11-12T10:46:30.738Z,27360
2017-11-12T10:47:40.728Z,22048
2017-11-12T10:48:50.714Z,18656
2017-11-12T10:50:00.694Z,22912
2017-11-12T10:51:11.018Z,24960
2017-11-12T10:52:21.026Z,24800
2017-11-12T10:53:31.020Z,23328
2017-11-12T10:54:41.339Z,22912
2017-11-12T10:55:51.333Z,22784
2017-11-12T10:57:01.326Z,20992
2017-11-12T10:58:11.626Z,21696
2017-11-12T10:59:21.271Z,23232
2017-11-12T11:00:31.273Z,22912
2017-11-12T11:01:41.247Z,24736
2017-11-12T11:02:51.244Z,27104
2017-11-12T11:04:01.245Z,25504
2017-11-12T11:05:11.551Z,25088
2017-11-12T11:06:21.538Z,24832
2017-11-12T11:07:31.858Z,24672
2017-11-12T11:08:41.852Z,25344
2017-11-12T11:09:51.830Z,25248
2017-11-12T11:11:02.146Z,28160
2017-11-12T11:12:12.456Z,29792
2017-11-12T11:13:21.785Z,31520
2017-11-12T11:14:31.769Z,37856
2017-11-12T11:15:42.084Z,40288
2017-11-12T11:16:52.393Z,33952
2017-11-12T11:18:02.702Z,40832
2017-11-12T11:19:12.683Z,41696
2017-11-12T11:20:22.995Z,30880
2017-11-12T11:21:31.983Z,28704
2017-11-12T11:22:42.328Z,26688
2017-11-12T11:23:52.315Z,24000
2017-11-12T11:25:01.965Z,20704
2017-11-12T11:26:12.279Z,19680
2017-11-12T11:27:22.628Z,19808
2017-11-12T11:28:32.299Z,19808
2017-11-12T11:29:42.601Z,20224
2017-11-12T11:30:52.586Z,20192
2017-11-12T11:32:02.603Z,20544
2017-11-12T11:33:12.936Z,20000
2017-11-12T11:34:22.915Z,19392
2017-11-12T11:35:32.897Z,18752
2017-11-12T11:36:42.869Z,17728
2017-11-12T11:37:52.870Z,17248
2017-11-12T11:39:02.529Z,17216
2017-11-12T11:40:12.868Z,17504
2017-11-12T11:41:23.178Z,17728
2017-11-12T11:42:33.181Z,17376
2017-11-12T11:43:42.829Z,16456
2017-11-12T11:44:52.501Z,15792
2017-11-12T11:46:02.839Z,15620
2017-11-12T11:47:13.163Z,15468
2017-11-12T11:48:23.134Z,15364
2017-11-12T11:49:33.114Z,15088
2017-11-12T11:50:43.427Z,15152
2017-11-12T11:51:53.411Z,16048
2017-11-12T11:53:03.739Z,17664
2017-11-12T11:54:14.060Z,18016
2017-11-12T11:55:24.093Z,18272
2017-11-12T11:56:33.762Z,19104
2017-11-12T11:57:44.025Z,19296
2017-11-12T11:58:54.366Z,19712
2017-11-12T12:00:04.688Z,19808
2017-11-12T12:01:14.999Z,19840
2017-11-12T12:02:25.321Z,19904
2017-11-12T12:03:35.295Z,19616
2017-11-12T12:04:45.622Z,19328
2017-11-12T12:05:55.619Z,18976
2017-11-12T12:07:05.610Z,18688
2017-11-12T12:08:15.592Z,17504
2017-11-12T12:09:25.637Z,16148
2017-11-12T12:10:35.570Z,14992
2017-11-12T12:11:45.510Z,13484
2017-11-12T12:12:55.488Z,12356
2017-11-12T12:14:05.134Z,11452
2017-11-12T12:15:15.448Z,10732
2017-11-12T12:16:25.781Z,10236
2017-11-12T12:17:36.090Z,10016
2017-11-12T12:18:46.071Z,9804
2017-11-12T12:19:56.058Z,9760
2017-11-12T12:21:06.357Z,10128
2017-11-12T12:22:16.009Z,10284
2017-11-12T12:23:26.342Z,10116
2017-11-12T12:24:36.351Z,9840
2017-11-12T12:25:46.351Z,9948
2017-11-12T12:26:56.644Z,10384
2017-11-12T12:28:06.634Z,10540
2017-11-12T12:29:16.660Z,10464
2017-11-12T12:30:26.646Z,10324
2017-11-12T12:31:36.968Z,10308
2017-11-12T12:32:46.957Z,10452
2017-11-12T12:33:57.268Z,10696
2017-11-12T12:35:07.582Z,10980
2017-11-12T12:36:17.910Z,11420
2017-11-12T12:37:28.202Z,12212
2017-11-12T12:38:37.857Z,13248
2017-11-12T12:39:47.864Z,14864
2017-11-12T12:40:58.177Z,17120
2017-11-12T12:42:08.163Z,18560
2017-11-12T12:43:18.719Z,20512
2017-11-12T12:44:28.704Z,22752
2017-11-12T12:45:38.694Z,24480
2017-11-12T12:46:49.024Z,25088
2017-11-12T12:47:59.335Z,23808
2017-11-12T12:49:09.334Z,26656
2017-11-12T12:50:19.316Z,30432
2017-11-12T12:51:29.307Z,26144
2017-11-12T12:52:39.283Z,22048
2017-11-12T12:53:49.639Z,19712
2017-11-12T12:54:59.964Z,17824
2017-11-12T12:56:10.277Z,16336
2017-11-12T12:57:20.578Z,15180
2017-11-12T12:58:30.559Z,14404
2017-11-12T12:59:40.225Z,13760
2017-11-12T13:00:50.559Z,13276
2017-11-12T13:02:00.864Z,12852
2017-11-12T13:03:10.523Z,12384
2017-11-12T13:04:20.846Z,11804
2017-11-12T13:05:31.163Z,11056
2017-11-12T13:06:40.501Z,10172
2017-11-12T13:07:50.502Z,9660
2017-11-12T13:09:00.493Z,9564
2017-11-12T13:10:10.475Z,9408
2017-11-12T13:11:20.800Z,9000
2017-11-12T13:12:31.148Z,8616
2017-11-12T13:13:41.465Z,8720
2017-11-12T13:14:51.123Z,8884
2017-11-12T13:16:01.106Z,8812
2017-11-12T13:17:11.405Z,8724
2017-11-12T13:18:21.717Z,8772
2017-11-12T13:19:32.023Z,8936
2017-11-12T13:20:41.998Z,9140
2017-11-12T13:21:52.309Z,9308
2017-11-12T13:23:02.299Z,9412
2017-11-12T13:24:12.291Z,9364
2017-11-12T13:25:22.264Z,9112
2017-11-12T13:26:32.249Z,8716
2017-11-12T13:27:42.555Z,8360
2017-11-12T13:28:52.867Z,8284
2017-11-12T13:30:03.206Z,8712
2017-11-12T13:31:13.520Z,9296
2017-11-12T13:32:23.834Z,10148
2017-11-12T13:33:33.811Z,12184
2017-11-12T13:34:43.797Z,20704
2017-11-12T13:35:54.116Z,25600
2017-11-12T13:37:03.769Z,24544
2017-11-12T13:38:14.080Z,24096
2017-11-12T13:39:24.383Z,17984
2017-11-12T13:40:34.695Z,15776
2017-11-12T13:41:44.671Z,14288
2017-11-12T13:42:54.663Z,13524
2017-11-12T13:44:04.323Z,12244
2017-11-12T13:45:14.336Z,10876
2017-11-12T13:46:24.679Z,9840
2017-11-12T13:47:34.335Z,8836
2017-11-12T13:48:44.654Z,7824
2017-11-12T13:49:54.654Z,6960
2017-11-12T13:51:04.966Z,6428
2017-11-12T13:52:15.265Z,6124
2017-11-12T13:53:25.265Z,5776
2017-11-12T13:54:34.934Z,5268
2017-11-12T13:55:44.944Z,4684
2017-11-12T13:56:54.587Z,4172
2017-11-12T13:58:04.905Z,3764
2017-11-12T13:59:15.241Z,3472
2017-11-12T14:00:25.218Z,3328
2017-11-12T14:01:34.880Z,3304
2017-11-12T14:02:45.185Z,3328
2017-11-12T14:03:55.495Z,3300
2017-11-12T14:05:05.147Z,3160
2017-11-12T14:06:15.463Z,2976
2017-11-12T14:07:25.468Z,2804
2017-11-12T14:08:35.449Z,2628
2017-11-12T14:09:45.768Z,2456
2017-11-12T14:10:55.733Z,2240
2017-11-12T14:12:05.708Z,1996
2017-11-12T14:13:15.689Z,1772
2017-11-12T14:14:25.666Z,1572
2017-11-12T14:15:35.969Z,1420
2017-11-12T14:16:46.280Z,1332
2017-11-12T14:17:56.254Z,1328
2017-11-12T14:19:06.232Z,1372
2017-11-12T14:20:16.538Z,1400
2017-11-12T14:21:26.834Z,1384
2017-11-12T14:22:36.817Z,1356
2017-11-12T14:23:46.800Z,1328
2017-11-12T14:24:57.126Z,1316
2017-11-12T14:26:07.454Z,1308
2017-11-12T14:27:17.757Z,1268
2017-11-12T14:28:28.075Z,1208
2017-11-12T14:29:37.736Z,1132
2017-11-12T14:30:47.722Z,1056
2017-11-12T14:31:58.052Z,988
2017-11-12T14:33:08.062Z,932
2017-11-12T14:34:18.057Z,904
2017-11-12T14:35:28.038Z,900
2017-11-12T14:36:38.351Z,908
2017-11-12T14:37:48.651Z,932
2017-11-12T14:38:58.625Z,968
2017-11-12T14:40:07.952Z,1004
2017-11-12T14:41:17.923Z,1040
2017-11-12T14:42:27.896Z,1072
2017-11-12T14:43:37.874Z,1100
2017-11-12T14:44:47.853Z,1100
2017-11-12T14:45:57.837Z,1092
2017-11-12T14:47:08.162Z,1092
2017-11-12T14:48:18.466Z,1068
2017-11-12T14:49:28.770Z,1024
2017-11-12T14:50:38.750Z,980
2017-11-12T14:51:48.744Z,936
2017-11-12T14:52:59.051Z,872
2017-11-12T14:54:09.361Z,808
2017-11-12T14:55:19.682Z,764
2017-11-12T14:56:29.329Z,680
2017-11-12T14:57:39.625Z,596
2017-11-12T14:58:49.924Z,536
2017-11-12T15:00:00.235Z,484
2017-11-12T15:01:10.547Z,444
2017-11-12T15:02:20.850Z,404
2017-11-12T15:03:31.164Z,368
2017-11-12T15:04:41.469Z,340
2017-11-12T15:05:51.479Z,316
2017-11-12T15:07:01.815Z,288
2017-11-12T15:08:11.821Z,264
2017-11-12T15:09:22.144Z,252
2017-11-12T15:10:32.128Z,244
2017-11-12T15:11:41.778Z,228
2017-11-12T15:12:51.476Z,212
2017-11-12T15:14:01.462Z,204
2017-11-12T15:15:11.790Z,188
2017-11-12T15:16:21.450Z,180
2017-11-12T15:17:31.749Z,164
2017-11-12T15:18:42.065Z,152
2017-11-12T15:19:51.732Z,140
2017-11-12T15:21:01.425Z,124
2017-11-12T15:22:11.118Z,112
2017-11-12T15:23:21.105Z,96
2017-11-12T15:24:31.422Z,80
2017-11-12T15:25:41.770Z,72
2017-11-12T15:26:52.098Z,60
2017-11-12T15:28:02.435Z,52
2017-11-12T15:29:12.395Z,44
2017-11-12T15:30:22.640Z,40
2017-11-12T15:31:32.883Z,32
2017-11-12T15:32:42.840Z,24
2017-11-12T15:33:52.482Z,24
2017-11-12T15:35:02.292Z,20
2017-11-12T15:36:12.269Z,16
2017-11-12T15:37:21.593Z,12
2017-11-12T15:38:31.816Z,12
2017-11-12T15:39:42.141Z,8
2017-11-12T15:40:52.116Z,8
2017-11-12T15:42:02.412Z,8
2017-11-12T15:43:12.724Z,4
2017-11-12T15:44:22.056Z,4
2017-11-12T15:45:32.368Z,4
2017-11-12T15:46:42.019Z,0
2017-11-12T15:47:51.993Z,4
2017-11-12T15:49:01.981Z,4
2017-11-12T15:50:12.294Z,0
2017-11-12T15:51:22.292Z,0
2017-11-12T15:52:32.622Z,0
2017-11-12T15:53:42.601Z,0
2017-11-12T15:54:52.586Z,0
2017-11-12T15:56:02.571Z,0
2017-11-12T15:57:12.219Z,0
2017-11-12T15:58:21.857Z,0
2017-11-12T15:59:31.851Z,0
2017-11-12T16:00:41.859Z,0
2017-11-12T16:01:51.842Z,0
2017-11-12T16:03:01.844Z,0
2017-11-12T16:04:11.834Z,0